createdAt,value
2023-02-26T00:02:47.940Z,2.00
2023-02-26T00:05:50.625Z,3.60
2023-02-26T00:08:52.448Z,3.80
2023-02-26T00:11:54.143Z,2.30
2023-02-26T00:14:56.263Z,3.40
2023-02-26T00:18:01.941Z,2.40
2023-02-26T00:21:03.586Z,2.20
2023-02-26T00:24:06.595Z,2.00
2023-02-26T00:27:09.568Z,1.70
2023-02-26T00:30:11.525Z,2.00
2023-02-26T00:33:13.144Z,2.40
2023-02-26T00:36:20.778Z,4.40
2023-02-26T00:39:33.930Z,2.40
2023-02-26T00:42:35.777Z,2.20
2023-02-26T00:45:38.676Z,2.80
2023-02-26T00:48:48.357Z,2.50
2023-02-26T00:51:58.272Z,2.40
2023-02-26T00:54:59.774Z,2.20
2023-02-26T00:58:01.251Z,2.40
2023-02-26T01:01:02.745Z,2.30
2023-02-26T01:04:04.851Z,2.30
2023-02-26T01:07:06.990Z,2.30
2023-02-26T01:10:09.689Z,2.30
2023-02-26T01:13:12.438Z,0.60
2023-02-26T01:16:18.029Z,2.20
2023-02-26T01:19:38.154Z,1.80
2023-02-26T01:22:39.640Z,2.30
2023-02-26T01:25:41.136Z,2.40
2023-02-26T01:28:42.882Z,2.40
2023-02-26T01:32:16.677Z,2.30
2023-02-26T01:35:21.465Z,2.50
2023-02-26T01:38:35.402Z,2.40
2023-02-26T01:41:57.418Z,2.50
2023-02-26T01:45:12.165Z,2.40
2023-02-26T01:48:20.699Z,2.10
2023-02-26T01:51:41.119Z,2.40
2023-02-26T01:54:42.685Z,2.30
2023-02-26T01:57:44.264Z,2.10
2023-02-26T02:00:45.753Z,2.20
2023-02-26T02:03:47.361Z,3.90
2023-02-26T02:06:49.012Z,2.10
2023-02-26T02:09:50.478Z,2.30
2023-02-26T02:13:21.580Z,2.20
2023-02-26T02:16:32.257Z,1.90
2023-02-26T02:19:42.488Z,2.40
2023-02-26T02:22:59.525Z,2.00
2023-02-26T02:26:00.972Z,1.80
2023-02-26T02:29:21.732Z,1.80
2023-02-26T02:32:26.359Z,2.10
2023-02-26T02:35:34.131Z,1.80
2023-02-26T02:38:38.613Z,1.80
2023-02-26T02:41:44.204Z,1.60
2023-02-26T02:44:47.948Z,1.70
2023-02-26T02:47:52.788Z,1.70
2023-02-26T02:50:57.082Z,1.70
2023-02-26T02:54:01.458Z,1.30
2023-02-26T02:57:23.287Z,1.50
2023-02-26T03:00:26.142Z,1.90
2023-02-26T03:03:34.074Z,1.80
2023-02-26T03:06:36.260Z,1.20
2023-02-26T03:09:38.266Z,1.60
2023-02-26T03:12:39.749Z,1.50
2023-02-26T03:15:52.251Z,1.60
2023-02-26T03:19:00.038Z,1.70
2023-02-26T03:22:04.052Z,1.70
2023-02-26T03:25:08.681Z,1.50
2023-02-26T03:28:20.727Z,1.40
2023-02-26T03:31:42.570Z,1.30
2023-02-26T03:34:47.733Z,1.60
2023-02-26T03:37:51.707Z,1.30
2023-02-26T03:41:00.593Z,1.50
2023-02-26T03:44:08.421Z,1.00
2023-02-26T03:47:12.504Z,1.40
2023-02-26T03:50:21.892Z,1.10
2023-02-26T03:53:28.079Z,1.30
2023-02-26T03:56:32.008Z,1.10
2023-02-26T03:59:34.104Z,1.50
2023-02-26T04:02:48.483Z,0.90
2023-02-26T04:05:51.686Z,1.30
2023-02-26T04:08:53.352Z,1.50
2023-02-26T04:11:56.218Z,1.00
2023-02-26T04:14:58.458Z,1.40
2023-02-26T04:17:59.992Z,1.20
2023-02-26T04:21:01.510Z,0.90
2023-02-26T04:24:03.112Z,1.10
2023-02-26T04:27:04.671Z,1.20
2023-02-26T04:30:06.592Z,1.10
2023-02-26T04:33:08.087Z,1.00
2023-02-26T04:36:09.624Z,1.00
2023-02-26T04:39:11.348Z,1.10
2023-02-26T04:42:12.840Z,1.30
2023-02-26T04:45:14.483Z,1.30
2023-02-26T04:48:16.292Z,1.10
2023-02-26T04:51:18.062Z,2.10
2023-02-26T04:54:19.660Z,1.30
2023-02-26T04:57:21.130Z,0.80
2023-02-26T05:00:22.683Z,1.30
2023-02-26T05:03:24.254Z,1.00
2023-02-26T05:06:26.084Z,1.10
2023-02-26T05:09:27.786Z,0.90
2023-02-26T05:12:29.246Z,1.30
2023-02-26T05:15:30.728Z,1.00
2023-02-26T05:18:32.461Z,1.10
2023-02-26T05:21:33.962Z,0.80
2023-02-26T05:24:35.469Z,0.90
2023-02-26T05:27:36.950Z,1.20
2023-02-26T05:30:38.482Z,0.60
2023-02-26T05:33:39.988Z,0.90
2023-02-26T05:36:41.456Z,0.60
2023-02-26T05:39:42.924Z,2.20
2023-02-26T05:42:45.368Z,1.00
2023-02-26T05:45:46.980Z,0.60
2023-02-26T05:48:48.490Z,-1.30
2023-02-26T05:51:50.072Z,0.40
2023-02-26T05:54:51.539Z,1.00
2023-02-26T05:57:53.050Z,0.80
2023-02-26T06:00:54.573Z,0.60
2023-02-26T06:03:56.068Z,0.30
2023-02-26T06:06:57.577Z,0.80
2023-02-26T06:09:59.043Z,0.60
2023-02-26T06:13:00.825Z,0.50
2023-02-26T06:16:02.419Z,0.60
2023-02-26T06:19:04.037Z,0.50
2023-02-26T06:22:05.555Z,0.50
2023-02-26T06:25:07.218Z,0.70
2023-02-26T06:28:08.738Z,0.50
2023-02-26T06:31:10.256Z,0.60
2023-02-26T06:34:11.763Z,0.70
2023-02-26T06:37:13.326Z,0.70
2023-02-26T06:40:14.849Z,0.60
2023-02-26T06:43:16.310Z,0.70
2023-02-26T06:46:17.901Z,0.40
2023-02-26T06:49:19.467Z,0.50
2023-02-26T06:52:20.962Z,0.70
2023-02-26T06:55:26.725Z,0.60
2023-02-26T06:58:28.194Z,2.40
2023-02-26T07:01:31.667Z,0.30
2023-02-26T07:04:33.152Z,0.50
2023-02-26T07:07:34.618Z,0.60
2023-02-26T07:10:36.581Z,0.60
2023-02-26T07:13:38.296Z,0.40
2023-02-26T07:16:39.845Z,0.60
2023-02-26T07:19:41.513Z,0.60
2023-02-26T07:22:43.049Z,0.50
2023-02-26T07:25:44.524Z,0.40
2023-02-26T07:28:45.995Z,0.30
2023-02-26T07:31:47.680Z,0.50
2023-02-26T07:34:49.314Z,0.90
2023-02-26T07:37:51.891Z,0.80
2023-02-26T07:40:56.427Z,0.70
2023-02-26T07:43:57.979Z,0.90
2023-02-26T07:46:59.919Z,1.20
2023-02-26T07:50:01.482Z,1.10
2023-02-26T07:53:03.045Z,1.50
2023-02-26T07:56:04.816Z,1.00
2023-02-26T07:59:06.433Z,1.00
2023-02-26T08:02:07.966Z,0.70
2023-02-26T08:05:09.496Z,1.20
2023-02-26T08:08:11.245Z,1.60
2023-02-26T08:11:12.741Z,1.00
2023-02-26T08:14:14.461Z,1.40
2023-02-26T08:17:16.031Z,1.50
2023-02-26T08:20:17.691Z,1.40
2023-02-26T08:23:19.345Z,1.50
2023-02-26T08:26:21.079Z,1.40
2023-02-26T08:29:22.909Z,1.60
2023-02-26T08:32:26.822Z,1.80
2023-02-26T08:35:28.468Z,2.00
2023-02-26T08:38:30.575Z,1.50
2023-02-26T08:41:32.552Z,0.40
2023-02-26T08:44:34.684Z,2.70
2023-02-26T08:47:39.584Z,1.70
2023-02-26T08:50:43.956Z,2.00
2023-02-26T08:53:47.167Z,2.00
2023-02-26T08:56:48.754Z,2.10
2023-02-26T08:59:50.231Z,2.00
2023-02-26T09:02:51.827Z,3.40
2023-02-26T09:05:53.365Z,2.10
2023-02-26T09:08:54.894Z,2.20
2023-02-26T09:11:56.429Z,2.40
2023-02-26T09:14:58.997Z,2.50
2023-02-26T09:18:00.557Z,2.20
2023-02-26T09:21:02.882Z,2.70
2023-02-26T09:24:04.442Z,2.30
2023-02-26T09:27:06.014Z,2.90
2023-02-26T09:30:07.825Z,2.50
2023-02-26T09:33:09.492Z,2.80
2023-02-26T09:36:10.999Z,2.60
2023-02-26T09:39:12.661Z,3.00
2023-02-26T09:42:25.863Z,2.70
2023-02-26T09:45:30.572Z,3.40
2023-02-26T09:48:33.511Z,3.20
2023-02-26T09:51:35.793Z,3.20
2023-02-26T09:54:41.740Z,3.30
2023-02-26T09:57:44.281Z,3.20
2023-02-26T10:00:53.333Z,3.50
2023-02-26T10:03:59.870Z,3.20
2023-02-26T10:07:04.378Z,3.50
2023-02-26T10:10:18.412Z,3.50
2023-02-26T10:13:48.991Z,3.70
2023-02-26T10:17:00.724Z,3.80
2023-02-26T10:20:15.142Z,3.70
2023-02-26T10:23:22.302Z,4.10
2023-02-26T10:26:25.679Z,3.90
2023-02-26T10:29:32.678Z,4.10
2023-02-26T10:32:38.962Z,3.70
2023-02-26T10:35:45.415Z,4.40
2023-02-26T10:38:49.257Z,4.60
2023-02-26T10:41:52.245Z,4.80
2023-02-26T10:45:11.264Z,4.70
2023-02-26T10:48:31.637Z,4.60
2023-02-26T10:51:37.106Z,4.90
2023-02-26T10:55:01.395Z,5.10
2023-02-26T10:58:14.164Z,5.10
2023-02-26T11:01:19.762Z,5.30
2023-02-26T11:04:26.109Z,5.50
2023-02-26T11:07:32.034Z,5.60
2023-02-26T11:10:40.163Z,5.60
2023-02-26T11:13:41.838Z,5.10
2023-02-26T11:16:47.592Z,5.00
2023-02-26T11:19:56.703Z,5.80
2023-02-26T11:23:00.551Z,5.60
2023-02-26T11:26:08.959Z,5.40
2023-02-26T11:29:14.734Z,5.70
2023-02-26T11:32:17.541Z,6.60
2023-02-26T11:35:20.178Z,5.70
2023-02-26T11:38:22.803Z,5.70
2023-02-26T11:41:25.782Z,5.40
2023-02-26T11:44:41.485Z,5.40
2023-02-26T11:47:43.662Z,5.50
2023-02-26T11:50:47.226Z,5.30
2023-02-26T11:53:56.440Z,5.10
2023-02-26T11:57:02.223Z,5.70
2023-02-26T12:00:18.449Z,5.50
2023-02-26T12:03:21.910Z,5.40
2023-02-26T12:06:24.682Z,5.70
2023-02-26T12:09:26.612Z,5.60
2023-02-26T12:12:28.185Z,6.00
2023-02-26T12:15:29.989Z,5.80
2023-02-26T12:18:34.457Z,5.50
2023-02-26T12:21:48.899Z,5.90
2023-02-26T12:24:59.640Z,5.50
2023-02-26T12:28:20.201Z,6.30
2023-02-26T12:31:26.332Z,6.20
2023-02-26T12:34:42.234Z,6.80
2023-02-26T12:38:06.553Z,6.90
2023-02-26T12:41:27.346Z,5.90
2023-02-26T12:44:38.086Z,6.10
2023-02-26T12:48:15.198Z,6.00
2023-02-26T12:51:16.673Z,6.10
2023-02-26T12:54:26.997Z,6.10
2023-02-26T12:57:28.809Z,6.40
2023-02-26T13:00:53.860Z,6.30
2023-02-26T13:04:08.504Z,6.30
2023-02-26T13:07:22.334Z,6.30
2023-02-26T13:10:36.242Z,6.20
2023-02-26T13:14:01.655Z,6.50
2023-02-26T13:17:17.419Z,7.10
2023-02-26T13:20:22.858Z,6.30
2023-02-26T13:23:25.912Z,6.00
2023-02-26T13:26:28.333Z,6.10
2023-02-26T13:29:35.587Z,6.40
2023-02-26T13:32:38.058Z,6.70
2023-02-26T13:35:41.897Z,5.80
2023-02-26T13:38:48.775Z,6.10
2023-02-26T13:42:08.909Z,6.40
2023-02-26T13:45:13.373Z,6.30
2023-02-26T13:48:14.870Z,6.00
2023-02-26T13:51:36.722Z,5.60
2023-02-26T13:54:45.114Z,5.50
2023-02-26T13:57:52.642Z,5.60
2023-02-26T14:01:06.470Z,5.70
2023-02-26T14:04:22.604Z,5.60
2023-02-26T14:07:43.191Z,5.60
2023-02-26T14:10:46.441Z,5.70
2023-02-26T14:14:06.586Z,5.60
2023-02-26T14:17:08.212Z,7.50
2023-02-26T14:20:17.677Z,6.20
2023-02-26T14:23:24.348Z,6.30
2023-02-26T14:26:27.533Z,6.10
2023-02-26T14:29:42.824Z,6.20
2023-02-26T14:32:49.035Z,5.50
2023-02-26T14:35:51.883Z,5.60
2023-02-26T14:38:54.001Z,5.60
2023-02-26T14:42:01.519Z,5.50
2023-02-26T14:45:10.433Z,5.90
2023-02-26T14:48:13.498Z,5.60
2023-02-26T14:51:15.030Z,5.70
2023-02-26T14:54:36.832Z,5.70
2023-02-26T14:57:44.500Z,5.70
2023-02-26T15:00:52.085Z,5.70
2023-02-26T15:04:14.316Z,5.50
2023-02-26T15:07:22.971Z,5.80
2023-02-26T15:10:24.432Z,5.50
2023-02-26T15:13:35.067Z,5.70
2023-02-26T15:16:46.291Z,5.50
2023-02-26T15:20:06.786Z,5.30
2023-02-26T15:23:11.363Z,5.40
2023-02-26T15:26:19.153Z,5.60
2023-02-26T15:29:26.380Z,5.40
2023-02-26T15:32:29.542Z,5.70
2023-02-26T15:35:31.765Z,5.80
2023-02-26T15:38:45.270Z,5.90
2023-02-26T15:41:47.913Z,5.60
2023-02-26T15:44:56.715Z,5.90
2023-02-26T15:48:01.581Z,5.90
2023-02-26T15:51:04.431Z,4.90
2023-02-26T15:54:06.449Z,5.50
2023-02-26T15:57:09.344Z,6.30
2023-02-26T16:00:16.172Z,5.70
2023-02-26T16:03:17.767Z,6.10
2023-02-26T16:06:23.888Z,6.20
2023-02-26T16:09:30.755Z,5.60
2023-02-26T16:12:38.292Z,6.10
2023-02-26T16:15:40.040Z,6.10
2023-02-26T16:18:41.980Z,5.50
2023-02-26T16:21:43.898Z,5.50
2023-02-26T16:24:52.535Z,5.30
2023-02-26T16:27:58.099Z,4.90
2023-02-26T16:31:00.951Z,5.00
2023-02-26T16:34:04.325Z,4.90
2023-02-26T16:37:22.177Z,6.00
2023-02-26T16:40:25.728Z,5.30
2023-02-26T16:43:47.519Z,5.20
2023-02-26T16:46:50.031Z,5.20
2023-02-26T16:49:51.653Z,4.40
2023-02-26T16:52:59.013Z,4.90
2023-02-26T16:56:01.131Z,4.50
2023-02-26T16:59:02.872Z,4.50
2023-02-26T17:02:10.211Z,5.00
2023-02-26T17:05:22.643Z,4.60
2023-02-26T17:08:27.290Z,4.70
2023-02-26T17:11:30.718Z,4.30
2023-02-26T17:14:36.985Z,4.10
2023-02-26T17:17:38.458Z,3.90
2023-02-26T17:20:40.195Z,3.90
2023-02-26T17:23:41.817Z,4.50
2023-02-26T17:26:43.513Z,4.30
2023-02-26T17:29:46.412Z,4.10
2023-02-26T17:32:47.992Z,3.80
2023-02-26T17:35:49.955Z,4.10
2023-02-26T17:38:51.530Z,3.90
2023-02-26T17:41:52.999Z,4.20
2023-02-26T17:44:56.590Z,4.30
2023-02-26T17:47:58.453Z,3.70
2023-02-26T17:51:00.637Z,4.30
2023-02-26T17:54:02.136Z,4.00
2023-02-26T17:57:04.056Z,4.00
2023-02-26T18:00:05.831Z,2.90
2023-02-26T18:03:08.642Z,4.50
2023-02-26T18:06:13.484Z,4.30
2023-02-26T18:09:15.066Z,4.40
2023-02-26T18:12:17.792Z,4.30
2023-02-26T18:15:19.344Z,4.20
2023-02-26T18:18:21.138Z,4.30
2023-02-26T18:21:22.594Z,4.50
2023-02-26T18:24:24.225Z,4.40
2023-02-26T18:27:26.512Z,4.30
2023-02-26T18:30:29.592Z,4.30
2023-02-26T18:33:31.178Z,4.00
2023-02-26T18:36:35.414Z,4.30
2023-02-26T18:39:38.001Z,4.10
2023-02-26T18:42:39.458Z,4.40
2023-02-26T18:45:42.062Z,4.00
2023-02-26T18:48:43.517Z,4.00
2023-02-26T18:51:44.987Z,6.20
2023-02-26T18:54:47.151Z,3.80
2023-02-26T18:57:48.689Z,4.00
2023-02-26T19:00:50.413Z,3.90
2023-02-26T19:03:51.886Z,4.10
2023-02-26T19:06:53.449Z,3.70
2023-02-26T19:09:56.727Z,4.00
2023-02-26T19:12:58.201Z,3.90
2023-02-26T19:15:59.791Z,3.90
2023-02-26T19:19:01.790Z,3.80
2023-02-26T19:22:03.281Z,4.00
2023-02-26T19:25:05.036Z,4.00
2023-02-26T19:28:06.532Z,4.10
2023-02-26T19:31:09.546Z,4.00
2023-02-26T19:34:11.601Z,4.00
2023-02-26T19:37:13.140Z,3.80
2023-02-26T19:40:19.406Z,4.10
2023-02-26T19:43:23.880Z,3.70
2023-02-26T19:46:25.475Z,4.10
2023-02-26T19:49:27.037Z,3.60
2023-02-26T19:52:31.109Z,3.50
2023-02-26T19:55:32.595Z,3.80
2023-02-26T19:58:34.474Z,4.10
2023-02-26T20:01:36.277Z,3.70
2023-02-26T20:04:37.807Z,3.90
2023-02-26T20:07:39.319Z,3.60
2023-02-26T20:10:41.715Z,3.60
2023-02-26T20:13:43.263Z,3.80
2023-02-26T20:16:44.811Z,3.70
2023-02-26T20:19:46.734Z,3.80
2023-02-26T20:22:48.288Z,3.70
2023-02-26T20:25:50.385Z,3.60
2023-02-26T20:28:52.234Z,3.10
2023-02-26T20:31:53.931Z,4.10
2023-02-26T20:34:55.485Z,4.00
2023-02-26T20:37:57.014Z,4.00
2023-02-26T20:40:58.511Z,3.70
2023-02-26T20:44:00.002Z,3.80
2023-02-26T20:47:05.034Z,4.00
2023-02-26T20:50:06.928Z,3.90
2023-02-26T20:53:08.549Z,4.10
2023-02-26T20:56:10.046Z,3.80
2023-02-26T20:59:11.660Z,4.00
2023-02-26T21:02:15.283Z,4.10
2023-02-26T21:05:17.063Z,3.70
2023-02-26T21:08:18.701Z,3.60
2023-02-26T21:11:20.355Z,3.70
2023-02-26T21:14:22.144Z,3.30
2023-02-26T21:17:24.331Z,4.40
2023-02-26T21:20:26.765Z,3.00
2023-02-26T21:23:28.313Z,3.50
2023-02-26T21:26:29.932Z,3.40
2023-02-26T21:29:31.472Z,3.40
2023-02-26T21:32:33.090Z,3.40
2023-02-26T21:35:35.075Z,3.00
2023-02-26T21:38:36.852Z,3.20
2023-02-26T21:41:38.342Z,3.20
2023-02-26T21:44:40.043Z,4.20
2023-02-26T21:47:41.644Z,2.70
2023-02-26T21:50:43.168Z,2.60
2023-02-26T21:53:46.698Z,3.00
2023-02-26T21:56:48.214Z,2.80
2023-02-26T21:59:50.215Z,2.70
2023-02-26T22:02:51.711Z,2.50
2023-02-26T22:05:53.214Z,2.80
2023-02-26T22:09:01.916Z,4.40
2023-02-26T22:12:03.720Z,2.80
2023-02-26T22:15:05.536Z,2.80
2023-02-26T22:18:07.293Z,2.50
2023-02-26T22:21:09.002Z,2.60
2023-02-26T22:24:10.533Z,2.30
2023-02-26T22:27:12.076Z,2.60
2023-02-26T22:30:13.746Z,2.30
2023-02-26T22:33:15.234Z,2.60
2023-02-26T22:36:16.819Z,2.60
2023-02-26T22:39:18.506Z,2.70
2023-02-26T22:42:20.027Z,2.40
2023-02-26T22:45:21.766Z,2.70
2023-02-26T22:48:23.285Z,2.50
2023-02-26T22:51:25.360Z,2.20
2023-02-26T22:54:27.228Z,2.30
2023-02-26T22:57:28.711Z,3.80
2023-02-26T23:00:30.321Z,2.70
2023-02-26T23:03:32.392Z,3.80
2023-02-26T23:06:36.425Z,2.30
2023-02-26T23:09:37.886Z,2.30
2023-02-26T23:12:39.405Z,2.60
2023-02-26T23:15:41.010Z,2.40
2023-02-26T23:18:45.351Z,2.70
2023-02-26T23:21:47.046Z,2.30
2023-02-26T23:24:48.530Z,2.20
2023-02-26T23:27:49.997Z,2.00
2023-02-26T23:30:51.573Z,2.60
2023-02-26T23:33:53.128Z,1.90
2023-02-26T23:36:54.641Z,2.30
2023-02-26T23:39:56.121Z,3.20
2023-02-26T23:42:57.727Z,2.30
2023-02-26T23:45:59.339Z,2.10
2023-02-26T23:49:02.845Z,2.00
2023-02-26T23:52:04.701Z,1.90
2023-02-26T23:55:06.560Z,4.20
2023-02-26T23:58:08.298Z,1.70
